Latest Weather Observations for Mount Gellibrand

IDV60801

Issued at 1:05 pm EST Friday 25 July 2014 (issued every 30 minutes, with the page automatically refreshed every 10 minutes)

About weather observations | Map of weather stations | Latest weather observations for VIC | Other Formats
Station Details ID: 090035 Name: MOUNT GELLIBRAND Lat: -38.23 Lon: 143.79 Height: 261.0 m
Data from the previous 72 hours. | See also: Recent months at Mount Gellibrand
Date/Time
EST
Temp
°C
App
Temp
°C
Dew
Point
Rel
Hum
%
Delta-T
°C
Wind Press
QNH
hPa
Press
MSL
hPa
Rain
since 9 am
mm
Dir
 
Spd
km/h
Gust
km/h
Spd
kts
Gust
kts
25/01:00pm 11.4 3.2 9.7 89 0.9 NNW 43 50 23 27 1013.7 1014.1 0.2
25/12:30pm 10.9 3.9 9.8 93 0.6 NNW 37 46 20 25 1014.0 - 0.2
25/12:00pm 11.4 3.5 9.5 88 1.0 NNW 41 48 22 26 1014.1 1014.5 0.0
25/11:30am 11.8 5.2 9.9 88 1.0 NNW 35 44 19 24 1014.5 - 0.0
25/11:00am 11.4 5.2 9.5 88 1.0 NNW 32 41 17 22 1014.5 1014.9 0.0
25/10:30am 10.7 5.3 9.5 92 0.6 NNW 28 33 15 18 1014.6 - 0.0
25/10:00am 10.7 5.3 9.5 92 0.6 N 28 33 15 18 1014.3 1014.7 0.0
25/09:30am 10.6 6.0 9.5 93 0.6 N 24 30 13 16 1013.9 - 0.0
25/09:00am 9.8 5.1 9.3 97 0.3 N 24 30 13 16 1013.9 1014.3 6.4
25/08:30am 9.5 4.8 9.2 98 0.2 N 24 30 13 16 1013.7 - 6.4
25/08:00am 9.1 3.9 8.8 98 0.1 N 26 33 14 18 1013.5 1013.9 6.4
25/07:30am 8.9 3.6 8.3 96 0.3 N 26 32 14 17 1013.0 - 6.2
25/07:00am 8.9 4.3 8.1 95 0.4 N 22 28 12 15 1012.8 1013.2 5.4
25/06:30am 9.1 3.8 8.3 95 0.4 N 26 30 14 16 1012.4 - 5.4
25/06:00am 9.0 4.0 8.1 94 0.4 N 24 28 13 15 1012.1 1012.4 5.0
25/05:30am 9.2 4.6 8.1 93 0.5 N 22 26 12 14 1012.0 - 5.0
25/05:00am 9.2 4.9 8.0 92 0.6 N 20 24 11 13 1011.7 1012.1 5.0
25/04:30am 9.0 4.7 7.8 92 0.6 N 20 26 11 14 1011.7 - 5.0
25/04:00am 8.8 4.6 7.3 90 0.7 NNE 19 20 10 11 1011.7 1012.1 5.0
25/03:30am 8.7 4.4 7.2 90 0.7 N 19 20 10 11 1011.7 - 5.0
25/03:00am 8.7 4.4 7.0 89 0.8 N 19 22 10 12 1011.6 1012.0 5.0
25/02:30am 9.1 4.7 7.2 88 0.9 N 20 24 11 13 1011.5 - 5.0
25/02:00am 8.7 4.2 6.8 88 0.9 N 20 26 11 14 1011.6 1012.0 5.0
25/01:30am 8.0 4.0 6.5 90 0.7 NNE 17 19 9 10 1011.5 - 5.0
25/01:00am 8.3 4.3 6.6 89 0.8 NNE 17 19 9 10 1011.5 1011.9 5.0
25/12:30am 8.4 4.3 6.4 87 0.9 NNE 17 20 9 11 1011.6 - 5.0
25/12:00am 8.9 5.0 6.9 87 0.9 NE 17 20 9 11 1012.0 1012.3 5.0
 
Date/Time
EST
Temp
°C
App
Temp
°C
Dew
Point
Rel
Hum
%
Delta-T
°C
Wind Press
QNH
hPa
Press
MSL
hPa
Rain
since 9 am
mm
Dir
 
Spd
km/h
Gust
km/h
Spd
kts
Gust
kts
24/11:30pm 8.7 4.3 6.7 87 0.9 NE 19 20 10 11 1012.2 - 5.0
24/11:00pm 8.6 4.6 6.7 88 0.9 NE 17 20 9 11 1012.4 1012.8 5.0
24/10:30pm 8.6 4.2 6.7 88 0.9 NE 19 20 10 11 1012.4 - 5.0
24/10:00pm 9.2 4.7 7.0 86 1.0 NE 20 24 11 13 1012.4 1012.8 5.0
24/09:30pm 9.3 4.5 7.3 87 1.0 NE 22 26 12 14 1012.4 - 4.8
24/09:00pm 9.2 4.0 7.3 88 0.9 NE 24 28 13 15 1012.4 1012.8 4.8
24/08:30pm 9.5 3.9 7.3 86 1.1 ENE 26 32 14 17 1012.4 - 4.8
24/08:00pm 9.3 3.8 7.4 88 0.9 ENE 26 32 14 17 1012.3 1012.7 4.8
24/07:30pm 9.2 3.7 7.5 89 0.8 ENE 26 33 14 18 1012.2 - 4.8
24/07:00pm 9.2 2.9 7.6 90 0.8 ENE 30 37 16 20 1012.0 1012.3 4.8
24/06:30pm 9.0 2.7 7.6 91 0.7 ENE 30 35 16 19 1011.9 - 4.8
24/06:00pm 9.3 2.7 7.7 90 0.8 ENE 32 37 17 20 1011.7 1012.1 4.8
24/05:30pm 9.5 2.3 7.8 89 0.8 ENE 35 43 19 23 1011.3 - 4.8
24/05:00pm 9.7 3.0 8.1 90 0.8 ENE 33 43 18 23 1011.2 1011.6 4.8
24/04:30pm 9.6 3.5 8.2 91 0.7 E 30 39 16 21 1011.3 - 4.8
24/04:00pm 9.6 3.5 8.4 92 0.6 E 30 35 16 19 1011.3 1011.7 4.8
24/03:30pm 9.7 4.1 8.6 93 0.5 E 28 35 15 19 1011.3 - 4.8
24/03:00pm 9.9 4.3 8.8 93 0.5 ENE 28 35 15 19 1011.5 1011.9 4.8
24/02:30pm 10.2 5.4 9.0 92 0.6 E 24 32 13 17 1011.6 - 4.6
24/02:00pm 10.0 4.3 8.4 90 0.8 ENE 28 35 15 19 1011.9 1012.2 4.6
24/01:30pm 9.8 5.0 8.7 93 0.5 E 24 30 13 16 1012.3 - 4.6
24/01:00pm 9.5 4.2 8.4 93 0.5 ENE 26 32 14 17 1012.7 1013.1 4.6
24/12:30pm 8.9 4.0 8.3 96 0.3 E 24 30 13 16 1013.2 - 4.6
24/12:00pm 8.4 4.3 8.0 97 0.2 E 19 24 10 13 1013.9 1014.3 4.6
24/11:30am 7.9 3.5 7.6 98 0.1 E 20 28 11 15 1014.5 - 4.6
24/11:00am 7.5 3.6 7.2 98 0.1 ENE 17 19 9 10 1015.0 1015.4 4.6
24/10:30am 7.3 3.0 7.0 98 0.1 NE 19 24 10 13 1015.3 - 3.8
24/10:00am 7.4 2.2 7.1 98 0.1 NE 24 32 13 17 1015.3 1015.7 2.6
24/09:30am 6.6 2.0 6.3 98 0.1 ENE 20 26 11 14 1015.5 - 1.4
24/09:00am 6.5 2.3 5.9 96 0.3 ENE 17 20 9 11 1015.3 1015.7 2.6
24/08:30am 6.5 2.3 5.8 95 0.3 ENE 17 22 9 12 1015.1 - 1.8
24/08:00am 6.8 2.6 5.6 92 0.5 NE 17 20 9 11 1015.1 1015.5 1.6
24/07:30am 6.4 2.5 5.5 94 0.4 ENE 15 19 8 10 1015.1 - 1.2
24/07:00am 6.0 1.3 5.0 93 0.4 ENE 19 24 10 13 1015.2 1015.6 1.0
24/06:30am 6.4 1.1 5.0 91 0.6 NE 22 26 12 14 1015.2 - 0.6
24/06:00am 5.7 1.9 4.0 89 0.7 E 13 17 7 9 1015.1 1015.5 0.0
24/05:30am 5.3 1.8 3.6 89 0.7 ESE 11 15 6 8 1015.1 - 0.0
24/05:00am 5.1 1.9 3.3 88 0.8 E 9 11 5 6 1015.4 1015.9 0.0
24/04:30am 5.3 2.5 3.2 86 0.9 ESE 7 7 4 4 1015.5 - 0.0
24/04:00am 5.5 2.9 3.0 84 1.0 ENE 6 7 3 4 1015.7 1016.2 0.0
24/03:30am 5.5 2.7 3.2 85 1.0 ENE 7 7 4 4 1015.7 - 0.0
24/03:00am 5.3 2.1 3.2 86 0.9 NE 9 11 5 6 1016.0 1016.4 0.0
24/02:30am 5.2 1.6 2.7 84 1.0 NNE 11 13 6 7 1016.1 - 0.0
24/02:00am 5.6 1.1 2.4 80 1.3 NE 15 17 8 9 1016.4 1016.8 0.0
24/01:30am 5.7 0.5 2.7 81 1.3 NE 19 22 10 12 1016.2 - 0.0
24/01:00am 5.0 0.3 3.2 88 0.8 NE 17 20 9 11 1016.4 1016.8 0.0
24/12:30am 5.2 0.1 4.3 94 0.4 NE 20 22 11 12 1016.6 - 0.0
24/12:00am 5.0 1.3 4.6 97 0.2 NE 13 15 7 8 1017.1 1017.5 0.0
 
Date/Time
EST
Temp
°C
App
Temp
°C
Dew
Point
Rel
Hum
%
Delta-T
°C
Wind Press
QNH
hPa
Press
MSL
hPa
Rain
since 9 am
mm
Dir
 
Spd
km/h
Gust
km/h
Spd
kts
Gust
kts
23/11:30pm 5.3 2.1 4.9 97 0.2 NE 11 13 6 7 1017.3 - 0.0
23/11:00pm 5.6 2.4 5.3 98 0.1 NE 11 13 6 7 1017.6 1018.0 0.0
23/10:30pm 5.3 1.7 4.9 97 0.2 NE 13 15 7 8 1017.9 - 0.0
23/10:00pm 6.1 3.4 5.7 97 0.2 NNE 9 13 5 7 1018.4 1018.8 0.0
23/09:30pm 6.0 3.6 5.4 96 0.3 ENE 7 9 4 5 1018.6 - 0.0
23/09:00pm 6.3 4.0 5.7 96 0.3 ENE 7 9 4 5 1018.7 1019.2 0.0
23/08:30pm 6.4 4.1 5.5 94 0.4 NE 7 9 4 5 1018.7 - 0.0
23/08:00pm 6.7 4.6 6.0 95 0.3 E 6 7 3 4 1019.0 1019.5 0.0
23/07:30pm 6.8 4.6 6.1 95 0.3 ENE 7 9 4 5 1019.0 - 0.0
23/07:00pm 7.2 5.2 6.3 94 0.4 E 6 7 3 4 1019.2 1019.7 0.0
23/06:30pm 7.3 5.3 6.2 93 0.5 E 6 7 3 4 1018.8 - 0.0
23/06:00pm 7.3 5.0 5.9 91 0.6 E 7 7 4 4 1018.7 1019.2 0.0
23/05:30pm 7.6 6.1 6.7 94 0.4 NNW 4 4 2 2 1018.8 - 0.0
23/05:00pm 7.6 6.2 7.3 98 0.1 NNW 4 4 2 2 1018.9 1019.4 0.0
23/04:30pm 7.8 6.5 7.5 98 0.1 NE 4 6 2 3 1018.8 - 0.0
23/04:00pm 7.6 5.6 7.3 98 0.1 E 7 9 4 5 1018.7 1019.2 0.0
23/03:30pm 7.6 5.6 7.3 98 0.1 E 7 9 4 5 1018.8 - 0.0
23/03:00pm 7.7 5.8 7.6 99 0.0 ESE 7 7 4 4 1018.8 1019.3 0.0
23/02:30pm 7.8 6.1 7.7 99 0.0 ESE 6 7 3 4 1019.1 - 0.0
23/02:00pm 7.3 5.5 7.2 99 0.0 E 6 7 3 4 1019.3 1019.8 0.0
23/01:30pm 6.8 5.3 6.7 99 0.0 E 4 6 2 3 1019.7 - 0.0
23/01:00pm 6.2 4.2 6.1 99 0.0 ENE 6 7 3 4 1020.4 1020.8 0.0
23/12:30pm 6.4 4.4 6.3 99 0.0 NNE 6 9 3 5 1020.8 - 0.0
23/12:00pm 5.8 3.5 5.7 99 0.0 NE 7 9 4 5 1021.4 1021.8 0.0
23/11:30am 5.6 3.3 5.5 99 0.0 ENE 7 9 4 5 1022.0 - 0.0
23/11:00am 5.2 2.8 5.1 99 0.0 ENE 7 9 4 5 1022.6 1023.1 0.0
23/10:30am 4.5 1.2 4.4 99 0.0 NE 11 13 6 7 1022.9 - 0.0
23/10:00am 4.1 0.3 4.0 99 0.0 ENE 13 13 7 7 1023.0 1023.5 0.0
23/09:30am 3.7 -0.5 3.6 99 0.0 NE 15 19 8 10 1023.0 - 0.0
23/09:00am 3.5 -1.2 3.4 99 0.0 ENE 17 19 9 10 1022.7 1023.2 0.4
23/08:30am 2.9 -1.9 2.8 99 0.0 ENE 17 19 9 10 1022.7 - 0.4
23/08:00am 2.5 -2.3 2.4 99 0.0 ENE 17 19 9 10 1022.6 1023.1 0.2
23/07:30am 2.5 -2.0 2.4 99 0.0 ENE 15 19 8 10 1022.6 - 0.2
23/07:00am 2.5 -2.3 2.4 99 0.0 E 17 19 9 10 1022.6 1023.1 0.2
23/06:30am 2.9 -1.9 2.8 99 0.0 E 17 20 9 11 1022.4 - 0.2
23/06:00am 2.6 -1.9 2.3 98 0.1 E 15 17 8 9 1022.3 1022.8 0.2
23/05:30am 3.9 0.5 3.8 99 0.0 ENE 11 11 6 6 1022.4 - 0.2
23/05:00am 3.7 0.2 3.4 98 0.1 E 11 11 6 6 1022.4 1022.9 0.2
23/04:30am 4.2 1.2 3.9 98 0.1 E 9 9 5 5 1022.5 - 0.0
23/04:00am 4.5 1.5 4.2 98 0.1 ENE 9 11 5 6 1022.5 1023.0 0.0
23/03:30am 4.6 1.3 4.3 98 0.1 ENE 11 11 6 6 1022.7 - 0.0
23/03:00am 4.8 2.3 4.5 98 0.1 ENE 7 9 4 5 1023.1 1023.6 0.0
23/02:30am 4.7 1.0 4.4 98 0.1 ENE 13 13 7 7 1023.0 - 0.0
23/02:00am 4.8 1.1 4.5 98 0.1 ENE 13 15 7 8 1022.9 1023.4 0.0
23/01:30am 4.7 1.0 4.4 98 0.1 ENE 13 15 7 8 1023.0 - 0.0
23/01:00am 5.1 1.1 4.8 98 0.1 ENE 15 15 8 8 1023.4 1023.9 0.0
23/12:30am 5.3 1.7 5.0 98 0.1 ENE 13 15 7 8 1023.7 - 0.0
23/12:00am 5.6 1.7 5.3 98 0.1 ENE 15 17 8 9 1024.1 1024.5 0.0
 
Date/Time
EST
Temp
°C
App
Temp
°C
Dew
Point
Rel
Hum
%
Delta-T
°C
Wind Press
QNH
hPa
Press
MSL
hPa
Rain
since 9 am
mm
Dir
 
Spd
km/h
Gust
km/h
Spd
kts
Gust
kts
22/11:30pm 5.9 1.7 5.5 97 0.2 ENE 17 17 9 9 1024.3 - 0.0
22/11:00pm 5.5 1.1 4.6 94 0.4 NE 17 19 9 10 1024.2 1024.6 0.0
22/10:30pm 5.8 1.3 4.4 91 0.6 ENE 17 17 9 9 1024.3 - 0.0
22/10:00pm 5.7 1.2 4.3 91 0.6 ENE 17 19 9 10 1024.3 1024.7 0.0
22/09:30pm 6.1 1.7 4.6 90 0.7 E 17 19 9 10 1024.5 - 0.0
22/09:00pm 6.0 1.9 4.5 90 0.7 E 15 17 8 9 1024.5 1024.9 0.0
22/08:30pm 6.1 2.0 4.4 89 0.7 E 15 15 8 8 1024.4 - 0.0
22/08:00pm 6.4 2.3 4.6 88 0.8 E 15 17 8 9 1024.3 1024.7 0.0
22/07:30pm 6.2 1.3 4.2 87 0.9 E 19 20 10 11 1024.1 - 0.0
22/07:00pm 6.4 2.0 4.6 88 0.8 E 17 19 9 10 1024.1 1024.5 0.0
22/06:30pm 6.5 1.7 4.7 88 0.8 ENE 19 20 10 11 1023.9 - 0.0
22/06:00pm 6.8 2.1 5.0 88 0.8 ENE 19 19 10 10 1023.6 1024.1 0.0
22/05:30pm 7.2 2.9 5.3 88 0.9 ENE 17 19 9 10 1023.7 - 0.0
22/05:00pm 8.3 3.7 5.6 83 1.2 ENE 19 20 10 11 1023.7 1024.2 0.0
22/04:30pm 9.6 5.8 5.8 77 1.8 ENE 15 20 8 11 1023.7 - 0.0
22/04:00pm 10.1 6.4 6.4 78 1.7 ENE 15 19 8 10 1023.7 1024.2 0.0
22/03:30pm 10.5 7.3 6.8 78 1.8 NE 13 17 7 9 1023.7 - 0.0
22/03:00pm 10.4 6.7 6.2 75 2.0 ENE 15 19 8 10 1023.9 1024.3 0.0
22/02:30pm 10.6 7.2 5.8 72 2.2 ENE 13 17 7 9 1023.9 - 0.0
22/02:00pm 10.6 7.6 6.2 74 2.1 ENE 11 15 6 8 1024.2 1024.6 0.0
22/01:30pm 10.2 7.5 5.6 73 2.1 NE 9 13 5 7 1024.6 - 0.0

Other Formats:

Comma delimited format used in spreadsheet applications
http://www.bom.gov.au/fwo/IDV60801/IDV60801.95845.axf

JavaScript Object Notation format (JSON) in row-major order
http://www.bom.gov.au/fwo/IDV60801/IDV60801.95845.json